Time;durP1;ratioP1;P1;durP2;ratioP2;P2;SDS_P1;SDS_P2;PMS_P1;PMS_P2;Temp;Humidity;BMP_temperature;BMP_pressure;BME280_temperature;BME280_humidity;BME280_pressure;Samples;Min_cycle;Max_cycle;Signal;HPM_P1;HPM_P2
2021/07/31 00:01:08;;;;;;;442.67;382.17;;;;;;;15.43;83.37;100364.47;5003619;28;20201;-79
2021/07/31 00:03:37;;;;;;;276.57;190.40;;;;;;;15.47;83.19;100354.81;5003364;28;20687;-77
2021/07/31 00:06:03;;;;;;;672.13;595.30;;;;;;;15.60;82.51;100351.81;5000683;28;20435;-78
2021/07/31 00:08:29;;;;;;;230.87;152.07;;;;;;;15.53;82.58;100348.44;5000771;28;20442;-78
2021/07/31 00:10:54;;;;;;;486.40;407.33;;;;;;;15.24;83.08;100319.78;5004935;28;20444;-79
2021/07/31 00:13:20;;;;;;;487.13;398.07;;;;;;;15.22;82.41;100347.06;5009814;28;20584;-80
2021/07/31 00:15:46;;;;;;;125.73;81.40;;;;;;;15.53;82.67;100337.63;5004500;28;20192;-78
2021/07/31 00:18:12;;;;;;;71.13;48.63;;;;;;;14.12;82.57;100130.31;5004026;28;20702;-78
2021/07/31 00:20:38;;;;;;;595.27;492.97;;;;;;;15.42;82.33;100338.53;5008006;28;20189;-78
2021/07/31 00:23:04;;;;;;;1007.13;827.47;;;;;;;13.55;82.46;100069.03;5008033;28;20448;-80
2021/07/31 00:25:29;;;;;;;489.40;348.90;;;;;;;14.73;81.98;100208.97;5008745;28;20445;-78
2021/07/31 00:27:55;;;;;;;401.80;282.70;;;;;;;15.24;82.64;100312.50;5009600;28;20554;-81
2021/07/31 00:30:23;;;;;;;516.53;408.17;;;;;;;15.07;82.74;100296.28;5015908;28;20193;-82
2021/07/31 00:32:50;;;;;;;243.10;183.53;;;;;;;14.64;82.86;100222.03;5008473;28;20205;-80
2021/07/31 00:35:15;;;;;;;558.20;494.13;;;;;;;14.99;82.05;100244.53;5010575;28;20436;-80
2021/07/31 00:37:41;;;;;;;80.70;56.73;;;;;;;15.14;83.11;100271.81;5006565;28;20835;-80
2021/07/31 00:40:07;;;;;;;396.33;338.77;;;;;;;15.23;82.36;100318.16;5008257;28;20668;-81
2021/07/31 00:42:32;;;;;;;402.03;320.90;;;;;;;15.21;82.45;100274.34;5008049;28;20666;-80
2021/07/31 00:44:57;;;;;;;181.67;114.53;;;;;;;15.02;81.92;100233.25;5009495;28;20472;-80
2021/07/31 00:47:24;;;;;;;212.33;149.47;;;;;;;14.57;81.47;100150.34;5004790;28;20209;-79
2021/07/31 00:49:49;;;;;;;440.83;341.83;;;;;;;14.54;82.39;100185.91;5008796;28;20189;-81
2021/07/31 00:52:15;;;;;;;477.97;426.50;;;;;;;14.72;82.60;100220.81;5007524;28;20429;-83
2021/07/31 00:54:40;;;;;;;318.27;239.97;;;;;;;14.71;82.19;100205.69;5008408;28;20602;-80
2021/07/31 00:57:06;;;;;;;419.20;347.03;;;;;;;14.73;82.53;100208.16;5008501;28;20586;-80
2021/07/31 00:59:31;;;;;;;171.70;117.40;;;;;;;14.53;82.07;100222.06;5010402;28;20216;-80
2021/07/31 01:01:56;;;;;;;146.13;104.30;;;;;;;13.76;81.96;100048.72;5007604;28;20195;-80
2021/07/31 01:04:22;;;;;;;428.27;363.20;;;;;;;14.98;82.18;100259.09;5009814;28;20726;-82
2021/07/31 01:06:48;;;;;;;483.70;424.23;;;;;;;15.04;81.63;100283.25;5012056;28;20204;-81
2021/07/31 01:09:13;;;;;;;223.73;147.33;;;;;;;15.04;81.59;100264.34;5009096;28;20270;-79
2021/07/31 01:11:39;;;;;;;645.90;558.83;;;;;;;15.43;81.10;100288.81;5010558;28;20472;-81
2021/07/31 01:14:05;;;;;;;449.33;345.57;;;;;;;14.75;81.18;100168.22;5008751;28;20217;-80
2021/07/31 01:16:30;;;;;;;585.43;495.10;;;;;;;14.15;81.16;100121.75;5010559;28;20217;-81
2021/07/31 01:18:56;;;;;;;73.80;48.20;;;;;;;14.92;80.77;100212.25;5011183;28;20469;-82
2021/07/31 01:21:41;;;;;;;243.93;159.37;;;;;;;15.28;80.99;100273.16;5013933;28;20668;-81
2021/07/31 01:24:07;;;;;;;115.53;69.00;;;;;;;15.17;81.29;100257.00;5012674;28;20184;-82
2021/07/31 01:26:47;;;;;;;420.00;357.93;;;;;;;14.80;81.38;100200.72;5004589;28;20456;-82
2021/07/31 01:29:15;;;;;;;367.20;292.13;;;;;;;15.26;80.79;100277.16;5010307;28;20475;-82
2021/07/31 01:31:42;;;;;;;43.13;27.13;;;;;;;15.07;81.30;100212.56;5007446;28;20436;-81
2021/07/31 01:34:08;;;;;;;164.53;106.73;;;;;;;14.89;81.60;100210.88;5003432;28;20439;-81
2021/07/31 01:36:34;;;;;;;254.73;210.73;;;;;;;14.76;80.80;100175.28;5004275;28;21019;-81
2021/07/31 01:39:00;;;;;;;107.93;69.90;;;;;;;15.24;81.56;100252.25;5004665;28;20220;-81
2021/07/31 01:41:26;;;;;;;1021.07;736.17;;;;;;;15.26;80.44;100248.25;5003752;28;20197;-79
2021/07/31 01:43:52;;;;;;;447.43;361.37;;;;;;;15.19;80.71;100255.69;5003777;28;20540;-80
2021/07/31 01:46:18;;;;;;;571.43;463.70;;;;;;;14.29;80.78;100089.94;5005591;28;20185;-80
2021/07/31 01:48:44;;;;;;;241.07;194.33;;;;;;;14.99;81.17;100228.34;5007659;28;20437;-81
2021/07/31 01:51:09;;;;;;;761.47;499.37;;;;;;;15.19;81.06;100252.16;5011093;28;20439;-81
2021/07/31 01:53:35;;;;;;;406.63;314.17;;;;;;;14.97;81.06;100222.34;5006563;28;20199;-80
2021/07/31 01:56:00;;;;;;;267.33;213.77;;;;;;;14.42;81.53;100113.91;5009365;28;20189;-80
2021/07/31 01:58:25;;;;;;;612.17;493.73;;;;;;;14.98;81.12;100208.59;5007855;28;20267;-79
2021/07/31 02:00:55;;;;;;;453.90;376.67;;;;;;;15.15;80.95;100230.22;5008111;28;20320;-80
2021/07/31 02:03:21;;;;;;;161.30;121.23;;;;;;;14.99;81.06;100191.34;5000518;28;20189;-81
2021/07/31 02:05:47;;;;;;;125.67;74.87;;;;;;;15.18;81.64;100215.41;5003639;28;20936;-80
2021/07/31 02:08:12;;;;;;;322.73;247.20;;;;;;;15.15;81.05;100212.13;5008226;28;20475;-80
2021/07/31 02:10:38;;;;;;;514.20;412.83;;;;;;;15.09;81.22;100221.22;5008701;28;20192;-81
2021/07/31 02:13:03;;;;;;;374.13;257.63;;;;;;;14.89;81.13;100153.34;5007020;28;20647;-81
2021/07/31 02:15:29;;;;;;;703.87;603.10;;;;;;;15.11;81.51;100199.38;5001571;28;21203;-82
2021/07/31 02:17:55;;;;;;;664.13;547.70;;;;;;;13.38;81.41;99940.72;5004540;28;20198;-81
2021/07/31 02:20:20;;;;;;;518.03;413.97;;;;;;;14.07;81.92;100038.53;5004886;28;20189;-82
2021/07/31 02:22:46;;;;;;;824.40;702.17;;;;;;;14.65;81.48;100175.06;5007801;28;20455;-81
2021/07/31 02:25:14;;;;;;;434.37;365.70;;;;;;;13.64;81.24;99972.47;5004108;28;20196;-81
2021/07/31 02:27:39;;;;;;;537.17;433.00;;;;;;;13.37;81.77;99952.56;5009431;28;20209;-82
2021/07/31 02:30:05;;;;;;;405.03;295.90;;;;;;;14.02;81.65;100023.06;5006027;28;20466;-82
2021/07/31 02:32:30;;;;;;;376.43;239.57;;;;;;;15.24;81.03;100192.81;5000969;28;20182;-78
2021/07/31 02:34:55;;;;;;;660.30;554.87;;;;;;;14.83;81.74;100119.22;5002901;28;20177;-80
2021/07/31 02:37:21;;;;;;;531.40;407.47;;;;;;;14.91;81.52;100154.75;5003942;28;20290;-81
2021/07/31 02:39:46;;;;;;;53.27;34.13;;;;;;;14.79;81.31;100099.19;5004811;28;20191;-80
2021/07/31 02:42:12;;;;;;;633.20;487.47;;;;;;;15.01;81.62;100161.38;5003286;28;20564;-78
2021/07/31 02:44:37;;;;;;;842.47;551.53;;;;;;;15.20;81.21;100170.88;5002257;28;20189;-77
2021/07/31 02:47:03;;;;;;;879.93;733.67;;;;;;;15.11;81.30;100139.94;5004132;28;20189;-81
2021/07/31 02:49:28;;;;;;;904.37;718.63;;;;;;;15.17;81.38;100165.16;5006582;28;20193;-81
2021/07/31 02:51:53;;;;;;;181.80;110.20;;;;;;;14.35;81.96;100042.25;5003331;28;20253;-80
2021/07/31 02:54:19;;;;;;;512.87;406.37;;;;;;;14.69;81.91;100133.06;5002940;28;20194;-81
2021/07/31 02:56:44;;;;;;;235.97;137.07;;;;;;;14.92;82.03;100132.06;5003755;28;20268;-81
2021/07/31 02:59:10;;;;;;;377.90;249.93;;;;;;;14.96;81.75;100127.03;5001244;28;20573;-81
2021/07/31 03:01:35;;;;;;;265.20;187.27;;;;;;;13.67;82.31;99942.34;5001443;28;20190;-82
2021/07/31 03:04:01;;;;;;;773.27;518.67;;;;;;;13.89;82.03;99980.25;5000566;28;20280;-81
2021/07/31 03:06:26;;;;;;;708.03;557.17;;;;;;;15.03;82.19;100146.56;4999550;28;20241;-83
2021/07/31 03:08:51;;;;;;;252.00;214.97;;;;;;;14.58;82.01;100065.63;5014590;28;20197;-81
2021/07/31 03:11:17;;;;;;;705.57;583.27;;;;;;;13.39;82.19;99891.16;5004181;28;20243;-81
2021/07/31 03:13:42;;;;;;;559.53;467.60;;;;;;;14.88;82.38;100155.22;5002981;28;20189;-81
2021/07/31 03:16:08;;;;;;;654.47;503.57;;;;;;;15.07;81.69;100118.03;5008243;28;20264;-83
2021/07/31 03:18:33;;;;;;;787.00;699.27;;;;;;;14.24;82.10;99990.03;5004881;28;20200;-81
2021/07/31 03:20:58;;;;;;;1147.03;628.67;;;;;;;14.42;81.98;100024.84;5003574;28;20661;-78
2021/07/31 03:23:24;;;;;;;329.27;206.90;;;;;;;15.19;82.03;100133.28;5006104;28;20228;-77
2021/07/31 03:25:58;;;;;;;636.13;520.67;;;;;;;14.58;81.09;100028.69;5010019;28;20189;-82
2021/07/31 03:28:24;;;;;;;866.73;621.70;;;;;;;15.07;82.34;100127.97;5006070;28;20617;-78
2021/07/31 03:30:50;;;;;;;937.67;765.10;;;;;;;15.17;82.58;100132.75;5008047;28;20436;-78
2021/07/31 03:33:15;;;;;;;709.50;604.37;;;;;;;14.51;82.66;100036.06;5007960;28;20972;-82
2021/07/31 03:35:42;;;;;;;392.73;284.70;;;;;;;14.15;83.10;99964.53;5014529;28;20189;-81
2021/07/31 03:38:08;;;;;;;464.67;357.27;;;;;;;14.51;82.77;100006.38;5007179;28;20209;-82
2021/07/31 03:40:34;;;;;;;768.23;635.80;;;;;;;15.13;82.86;100108.13;5007152;28;20444;-80
2021/07/31 03:42:59;;;;;;;375.13;284.80;;;;;;;14.07;82.45;99940.66;5010611;28;20460;-82
2021/07/31 03:45:25;;;;;;;79.03;42.40;;;;;;;15.23;82.67;100102.03;5005978;28;20189;-81
2021/07/31 03:47:51;;;;;;;382.57;281.37;;;;;;;14.85;82.74;100053.13;5007726;28;20202;-83
2021/07/31 03:50:16;;;;;;;457.60;334.07;;;;;;;14.85;82.92;100050.44;5003259;28;20178;-81
2021/07/31 03:52:42;;;;;;;593.90;475.97;;;;;;;14.69;82.61;100032.34;5008551;28;20217;-81
2021/07/31 03:55:08;;;;;;;427.37;334.40;;;;;;;14.77;82.40;100013.03;5008588;28;20718;-80
2021/07/31 03:57:33;;;;;;;314.57;233.30;;;;;;;15.05;82.69;100108.53;5009290;28;20244;-82
2021/07/31 03:59:59;;;;;;;665.70;553.20;;;;;;;15.11;82.43;100070.53;5008876;28;20522;-78
2021/07/31 04:02:25;;;;;;;405.83;307.90;;;;;;;14.61;82.80;99990.41;5009688;28;20562;-79
2021/07/31 04:04:50;;;;;;;647.70;576.50;;;;;;;15.00;83.40;100082.25;5008184;28;20447;-82
2021/07/31 04:07:15;;;;;;;711.87;518.70;;;;;;;15.08;83.07;100064.81;5001599;28;20201;-77
2021/07/31 04:09:41;;;;;;;995.63;836.97;;;;;;;14.52;82.99;99972.16;5011259;28;20205;-78
2021/07/31 04:12:07;;;;;;;741.60;634.00;;;;;;;14.97;83.10;100012.53;5003311;28;20192;-80
2021/07/31 04:14:32;;;;;;;514.17;383.80;;;;;;;15.01;83.59;100029.84;5008232;28;20589;-81
2021/07/31 04:16:58;;;;;;;679.70;600.10;;;;;;;15.40;83.65;100097.44;5009709;28;20205;-82
2021/07/31 04:19:23;;;;;;;636.13;516.53;;;;;;;14.31;83.93;99939.41;5006042;28;20197;-82
2021/07/31 04:21:54;;;;;;;1072.23;872.40;;;;;;;14.67;83.95;99972.41;5002455;28;20588;-81
2021/07/31 04:24:20;;;;;;;1136.80;923.57;;;;;;;15.21;84.18;100050.94;5006974;28;20268;-81
2021/07/31 04:26:45;;;;;;;699.67;625.17;;;;;;;13.98;84.69;99862.03;5005223;28;20467;-81
2021/07/31 04:29:11;;;;;;;865.73;771.43;;;;;;;14.42;84.90;99933.13;5003719;28;20511;-79
2021/07/31 04:31:36;;;;;;;644.00;527.10;;;;;;;15.34;84.31;100057.91;5004555;28;20552;-81
2021/07/31 04:34:02;;;;;;;932.57;752.03;;;;;;;15.36;84.30;100059.28;5007194;28;20653;-82
2021/07/31 04:36:27;;;;;;;820.87;666.93;;;;;;;15.42;84.46;100094.47;5006272;28;20220;-82
2021/07/31 04:38:53;;;;;;;653.23;543.00;;;;;;;15.20;83.91;100033.13;5008641;28;20240;-80
2021/07/31 04:41:18;;;;;;;992.03;717.83;;;;;;;14.24;84.22;99909.13;5004077;28;20186;-81
2021/07/31 04:43:43;;;;;;;840.60;727.27;;;;;;;15.48;83.53;100098.91;5007649;28;20200;-81
2021/07/31 04:46:09;;;;;;;977.57;851.43;;;;;;;13.76;83.64;99811.53;5014365;28;20202;-79
2021/07/31 04:48:34;;;;;;;1093.83;836.83;;;;;;;14.52;84.01;99926.28;5001652;28;20652;-82
2021/07/31 04:51:01;;;;;;;944.03;839.43;;;;;;;14.18;83.93;99881.25;5004713;28;20209;-79
2021/07/31 04:53:27;;;;;;;1066.47;877.53;;;;;;;15.48;84.08;100056.47;5005144;28;21059;-80
2021/07/31 04:55:54;;;;;;;1017.33;814.23;;;;;;;14.38;83.93;99917.69;5002643;28;20454;-79
2021/07/31 04:58:20;;;;;;;1055.73;855.80;;;;;;;14.47;83.96;99918.91;5006528;28;20499;-76
2021/07/31 05:00:46;;;;;;;627.90;527.73;;;;;;;14.52;84.24;99908.19;5002329;28;21466;-80
2021/07/31 05:03:12;;;;;;;937.03;809.10;;;;;;;15.25;83.99;100030.50;5000677;28;20449;-81
2021/07/31 05:05:37;;;;;;;956.63;840.60;;;;;;;15.53;84.46;100063.81;5003771;28;20445;-79
2021/07/31 05:08:03;;;;;;;1202.90;855.87;;;;;;;15.01;84.99;100005.56;4999710;28;20205;-80
2021/07/31 05:10:28;;;;;;;1085.63;951.00;;;;;;;14.53;84.71;99930.63;5000411;28;20216;-78
2021/07/31 05:12:54;;;;;;;1017.73;862.23;;;;;;;15.57;85.32;100073.88;5000647;28;20659;-78
2021/07/31 05:15:22;;;;;;;1140.60;722.77;;;;;;;15.49;85.13;100068.91;5000841;28;20204;-76
2021/07/31 05:17:48;;;;;;;1020.60;691.33;;;;;;;15.19;84.91;100047.69;4999355;28;20666;-82
2021/07/31 05:20:13;;;;;;;1077.80;907.80;;;;;;;15.02;84.63;99987.50;5002180;28;20451;-80
2021/07/31 05:22:38;;;;;;;1690.27;946.93;;;;;;;15.58;84.63;100075.50;5008702;28;20212;-76
2021/07/31 05:25:04;;;;;;;907.43;759.13;;;;;;;14.80;85.13;99969.34;5004293;28;20201;-79
2021/07/31 05:27:30;;;;;;;1108.50;778.73;;;;;;;15.51;84.74;100082.19;5002616;28;20236;-77
2021/07/31 05:29:55;;;;;;;869.07;681.90;;;;;;;15.49;85.17;100068.91;5011585;28;20794;-82
2021/07/31 05:32:20;;;;;;;808.67;651.80;;;;;;;15.47;85.51;100062.94;5010146;28;20197;-83
2021/07/31 05:34:46;;;;;;;783.87;607.87;;;;;;;13.84;85.29;99802.25;5007400;28;20220;-81
2021/07/31 05:37:11;;;;;;;962.03;828.07;;;;;;;14.74;85.05;99956.03;5005640;28;20209;-79
2021/07/31 05:39:37;;;;;;;1066.33;945.20;;;;;;;15.51;85.23;100060.56;5005217;28;20189;-82
2021/07/31 05:42:03;;;;;;;942.73;837.47;;;;;;;14.23;85.46;99880.50;5006590;28;20256;-81
2021/07/31 05:44:29;;;;;;;1072.50;796.63;;;;;;;15.33;85.00;100019.25;5006865;28;20232;-80
2021/07/31 05:46:54;;;;;;;976.67;865.57;;;;;;;15.33;84.92;100011.16;5004747;28;20501;-79
2021/07/31 05:49:20;;;;;;;995.83;875.73;;;;;;;14.98;85.25;99948.53;5004087;28;20191;-82
2021/07/31 05:51:47;;;;;;;1042.20;923.23;;;;;;;15.31;84.26;99971.94;5008396;28;20190;-82
2021/07/31 05:54:13;;;;;;;781.40;638.33;;;;;;;14.34;84.91;99831.03;5007330;28;20185;-81
2021/07/31 05:56:41;;;;;;;1007.97;846.57;;;;;;;14.86;84.88;99944.06;5003525;28;20567;-79
2021/07/31 05:59:06;;;;;;;724.20;563.23;;;;;;;15.68;84.22;100028.91;5002489;28;20181;-80
2021/07/31 06:01:35;;;;;;;975.87;811.93;;;;;;;15.23;85.04;99991.28;5003484;28;20812;-81
2021/07/31 06:04:01;;;;;;;1377.20;907.20;;;;;;;15.84;84.54;100094.78;5008996;28;20555;-75
2021/07/31 06:06:26;;;;;;;894.27;796.97;;;;;;;15.39;84.38;99998.53;5004209;28;20476;-82
2021/07/31 06:08:52;;;;;;;1019.83;890.77;;;;;;;15.56;84.65;100064.16;5013206;28;20433;-82
2021/07/31 06:11:17;;;;;;;886.93;772.20;;;;;;;15.63;84.52;100041.53;5006729;28;20268;-82
2021/07/31 06:13:43;;;;;;;1047.27;859.57;;;;;;;15.85;84.78;100117.25;5004335;28;20182;-81
2021/07/31 06:16:11;;;;;;;1074.80;899.67;;;;;;;14.18;84.24;99843.50;5008702;28;20185;-82
2021/07/31 06:18:38;;;;;;;612.97;485.77;;;;;;;15.97;84.62;100089.00;5006777;28;20216;-83
2021/07/31 06:21:05;;;;;;;1326.47;897.27;;;;;;;15.75;83.65;100082.78;5005612;28;20441;-78
2021/07/31 06:23:30;;;;;;;851.03;701.43;;;;;;;15.23;83.86;99975.88;5001950;28;21028;-80
2021/07/31 06:26:01;;;;;;;745.40;643.77;;;;;;;14.44;83.90;99847.38;5013108;28;20440;-82
2021/07/31 06:28:27;;;;;;;856.17;708.53;;;;;;;16.01;84.02;100087.44;5005569;28;20264;-80
2021/07/31 06:30:53;;;;;;;1455.70;870.83;;;;;;;16.04;82.99;100073.41;5005804;28;20495;-76
2021/07/31 06:33:18;;;;;;;474.20;370.10;;;;;;;15.84;82.59;99977.72;5003514;28;20443;-79
2021/07/31 06:35:43;;;;;;;1069.43;922.37;;;;;;;16.17;82.86;100103.81;5005587;28;20862;-83
2021/07/31 06:38:09;;;;;;;827.10;675.07;;;;;;;15.80;83.12;100012.56;5002297;28;20238;-80
2021/07/31 06:40:35;;;;;;;740.57;594.73;;;;;;;15.87;83.33;100015.06;5000555;28;20182;-83
2021/07/31 06:43:00;;;;;;;951.37;833.43;;;;;;;15.19;82.94;99893.72;5010293;28;20610;-82
2021/07/31 06:45:26;;;;;;;297.17;197.77;;;;;;;16.36;83.19;100069.13;5002329;28;20421;-79
2021/07/31 06:47:51;;;;;;;1070.07;803.97;;;;;;;15.02;82.75;99896.50;5003548;28;20205;-83
2021/07/31 06:50:17;;;;;;;299.67;210.83;;;;;;;15.57;84.10;99981.97;5001488;28;20204;-81
2021/07/31 06:52:43;;;;;;;1000.67;874.30;;;;;;;15.68;85.35;100014.56;5004957;28;20177;-83
2021/07/31 06:55:09;;;;;;;785.60;640.27;;;;;;;15.61;85.72;100012.03;5006045;28;20433;-81
2021/07/31 06:57:34;;;;;;;947.70;752.80;;;;;;;16.07;85.29;100074.78;5003630;28;20316;-85
2021/07/31 07:00:00;;;;;;;1152.80;970.37;;;;;;;16.01;84.60;100054.97;5007399;28;20470;-84
2021/07/31 07:02:25;;;;;;;981.90;853.67;;;;;;;16.07;84.34;100085.59;5009127;28;20194;-81
2021/07/31 07:04:51;;;;;;;1214.20;648.67;;;;;;;14.94;83.90;99869.91;5004957;28;20196;-83
2021/07/31 07:07:19;;;;;;;1077.17;951.10;;;;;;;15.71;83.69;99979.75;5006041;28;20272;-79
2021/07/31 07:09:45;;;;;;;1088.60;826.60;;;;;;;16.30;83.75;100072.88;5008946;28;20665;-84
2021/07/31 07:12:11;;;;;;;1082.83;903.33;;;;;;;15.94;83.05;100010.25;5005615;28;20440;-82
2021/07/31 07:14:36;;;;;;;1033.13;881.30;;;;;;;15.75;83.20;99961.94;5007641;28;20455;-86
2021/07/31 07:17:05;;;;;;;994.50;884.60;;;;;;;16.45;82.73;100078.41;5004731;28;20245;-77
2021/07/31 07:19:31;;;;;;;966.00;822.47;;;;;;;16.22;83.25;100068.72;5002276;28;20271;-81
2021/07/31 07:21:56;;;;;;;1023.17;898.43;;;;;;;16.32;84.00;100086.97;5001579;28;20503;-80
2021/07/31 07:24:22;;;;;;;1300.60;837.30;;;;;;;16.37;83.67;100082.38;5003877;28;20181;-77
2021/07/31 07:26:47;;;;;;;1133.47;714.13;;;;;;;15.76;84.54;100024.94;5003037;28;20663;-80
2021/07/31 07:29:12;;;;;;;595.20;429.27;;;;;;;15.85;84.87;100004.47;5006014;28;21401;-81
2021/07/31 07:31:38;;;;;;;819.27;706.03;;;;;;;16.38;84.93;100078.63;5001474;28;20185;-81
2021/07/31 07:34:03;;;;;;;502.87;367.60;;;;;;;16.58;83.67;100085.31;5003587;28;20749;-78
2021/07/31 07:36:28;;;;;;;599.83;474.90;;;;;;;16.03;84.69;100033.09;5009359;28;20264;-79
2021/07/31 07:38:54;;;;;;;581.60;442.43;;;;;;;16.11;83.48;100010.97;5005520;28;20614;-79
2021/07/31 07:41:19;;;;;;;866.43;749.30;;;;;;;15.94;83.12;99986.75;5001258;28;20247;-81
2021/07/31 07:43:45;;;;;;;449.67;336.40;;;;;;;16.16;82.54;99989.38;5010725;28;20205;-80
2021/07/31 07:46:17;;;;;;;287.53;195.27;;;;;;;16.54;82.23;100054.41;5002765;28;20300;-80
2021/07/31 07:48:46;;;;;;;467.10;373.00;;;;;;;16.62;82.67;100084.53;5000754;28;20236;-80
2021/07/31 07:51:11;;;;;;;545.63;393.10;;;;;;;16.12;81.51;99968.53;5001528;28;20944;-77
2021/07/31 07:53:37;;;;;;;1205.57;849.60;;;;;;;16.50;81.71;100065.75;5004774;28;20475;-82
2021/07/31 07:56:03;;;;;;;1017.13;839.07;;;;;;;14.80;82.83;99839.78;5004535;28;20197;-78
2021/07/31 07:58:28;;;;;;;977.77;831.47;;;;;;;16.80;82.74;100091.47;5001113;28;20577;-79
2021/07/31 08:00:54;;;;;;;496.67;356.63;;;;;;;16.40;82.55;100029.63;5002838;28;20266;-81
2021/07/31 08:03:19;;;;;;;455.93;309.43;;;;;;;16.55;81.13;100020.84;5001980;28;20235;-76
2021/07/31 08:05:45;;;;;;;909.67;791.97;;;;;;;16.49;79.77;100003.75;5003496;28;20661;-77
2021/07/31 08:08:10;;;;;;;157.17;98.67;;;;;;;16.77;80.28;100007.25;5000512;28;20240;-80
2021/07/31 08:10:36;;;;;;;106.33;74.90;;;;;;;17.31;79.47;100094.56;5002733;28;20208;-77
2021/07/31 08:13:01;;;;;;;577.00;453.47;;;;;;;17.07;77.80;100060.81;5010744;28;20189;-78
2021/07/31 08:15:27;;;;;;;798.90;636.83;;;;;;;17.00;76.87;100004.13;5004138;28;20324;-80
2021/07/31 08:17:52;;;;;;;503.47;397.43;;;;;;;17.36;77.66;100093.81;5001874;28;20790;-77
2021/07/31 08:20:18;;;;;;;690.90;580.30;;;;;;;17.22;77.31;100098.03;5001560;28;20189;-78
2021/07/31 08:22:43;;;;;;;696.73;575.03;;;;;;;17.20;77.65;100101.00;5000034;28;20190;-76
2021/07/31 08:25:09;;;;;;;540.63;408.37;;;;;;;17.03;77.81;100086.78;4999032;28;20185;-75
2021/07/31 08:27:36;;;;;;;278.97;173.83;;;;;;;17.16;78.38;100111.56;5002121;28;20287;-77
2021/07/31 08:30:03;;;;;;;679.93;587.70;;;;;;;16.71;79.69;100084.88;4999890;28;20976;-77
2021/07/31 08:32:28;;;;;;;1023.07;829.73;;;;;;;17.13;78.70;100095.81;4997590;28;20440;-80
2021/07/31 08:34:53;;;;;;;699.37;591.50;;;;;;;17.57;78.18;100138.13;4997538;28;20448;-80
2021/07/31 08:37:19;;;;;;;636.63;498.47;;;;;;;17.30;74.62;100057.72;5002623;28;20732;-78
2021/07/31 08:39:45;;;;;;;306.73;227.83;;;;;;;17.60;75.23;100100.44;4997126;28;20601;-76
2021/07/31 08:42:12;;;;;;;464.93;344.10;;;;;;;17.51;75.62;100101.22;4998881;28;20182;-77
2021/07/31 08:44:37;;;;;;;963.70;547.03;;;;;;;17.32;75.77;100077.22;5002613;28;20573;-77
2021/07/31 08:47:04;;;;;;;203.13;121.57;;;;;;;16.79;76.07;100035.69;5002104;28;20546;-77
2021/07/31 08:49:32;;;;;;;390.10;291.20;;;;;;;17.36;76.77;100143.41;4997527;28;20232;-79
2021/07/31 08:51:59;;;;;;;1311.40;782.20;;;;;;;17.28;74.55;100159.34;5002798;28;20466;-79
2021/07/31 08:54:24;;;;;;;352.07;228.20;;;;;;;17.13;76.66;100135.66;5003119;28;20421;-75
2021/07/31 08:56:50;;;;;;;159.40;93.70;;;;;;;17.01;75.51;100106.03;5001084;28;20451;-78
2021/07/31 08:59:16;;;;;;;425.00;301.17;;;;;;;17.28;74.13;100162.03;4996192;28;20276;-76
2021/07/31 09:01:43;;;;;;;129.53;85.83;;;;;;;17.27;74.00;100138.72;4995003;28;20226;-76
2021/07/31 09:04:14;;;;;;;13.33;8.93;;;;;;;17.32;74.37;100158.53;4997810;28;20181;-75
2021/07/31 09:06:40;;;;;;;113.87;73.50;;;;;;;17.44;74.47;100188.16;4994153;28;20464;-76
2021/07/31 09:09:05;;;;;;;565.47;402.13;;;;;;;17.40;75.07;100182.47;5002215;28;20844;-76
2021/07/31 09:11:32;;;;;;;507.73;368.47;;;;;;;17.12;75.41;100137.53;5002731;28;20197;-76
2021/07/31 09:14:11;;;;;;;443.17;346.37;;;;;;;17.01;75.98;100135.84;4999834;28;20611;-76
2021/07/31 09:16:37;;;;;;;552.83;434.33;;;;;;;17.31;75.69;100194.88;5001558;28;20451;-74
2021/07/31 09:19:04;;;;;;;62.27;38.07;;;;;;;17.25;76.16;100179.63;5001053;28;20468;-75
2021/07/31 09:21:31;;;;;;;135.87;91.63;;;;;;;17.07;76.37;100190.88;4996304;28;20946;-75
2021/07/31 09:23:56;;;;;;;659.97;515.67;;;;;;;17.23;76.41;100217.00;4992720;28;20444;-75
2021/07/31 09:26:23;;;;;;;96.77;52.07;;;;;;;17.30;76.98;100223.06;5000125;28;20886;-75
2021/07/31 09:28:59;;;;;;;428.20;315.60;;;;;;;17.04;77.31;100240.97;4999048;28;20274;-80
2021/07/31 09:31:25;;;;;;;689.67;514.10;;;;;;;16.97;77.76;100253.06;4998188;28;20432;-76
2021/07/31 09:33:51;;;;;;;258.70;164.80;;;;;;;17.04;77.94;100254.53;5000067;28;20432;-75
2021/07/31 09:36:17;;;;;;;561.03;440.90;;;;;;;17.06;78.46;100297.59;4997440;28;20454;-76
2021/07/31 09:38:48;;;;;;;120.10;61.03;;;;;;;16.92;79.37;100216.75;4996766;28;20308;-75
2021/07/31 09:41:34;;;;;;;155.67;99.53;;;;;;;16.76;80.63;100252.88;5000492;28;20452;-76
2021/07/31 09:44:07;;;;;;;160.93;85.90;;;;;;;16.93;81.90;100272.56;5003805;28;20439;-75
2021/07/31 09:46:35;;;;;;;167.20;99.80;;;;;;;16.79;81.80;100284.84;5000605;28;20514;-74
2021/07/31 09:49:02;;;;;;;274.57;184.30;;;;;;;16.73;82.87;100291.25;4999007;28;20781;-74
2021/07/31 09:51:44;;;;;;;1027.57;740.57;;;;;;;16.43;82.35;100302.50;5002046;28;20432;-75
2021/07/31 09:54:11;;;;;;;638.93;517.47;;;;;;;16.13;82.83;100259.63;4996243;28;20440;-74
2021/07/31 09:56:42;;;;;;;949.87;831.37;;;;;;;16.49;82.00;100305.03;4996360;28;20467;-78
2021/07/31 09:59:09;;;;;;;232.37;164.93;;;;;;;16.38;82.03;100308.69;4991527;28;20441;-75
2021/07/31 10:01:36;;;;;;;530.30;378.33;;;;;;;16.45;81.99;100319.31;4993525;28;21347;-74
2021/07/31 10:04:03;;;;;;;760.50;594.73;;;;;;;16.37;81.13;100312.44;4993327;28;20451;-74
2021/07/31 10:06:33;;;;;;;768.67;607.53;;;;;;;16.43;82.07;100327.72;4995554;28;20464;-73
2021/07/31 10:09:01;;;;;;;308.03;194.77;;;;;;;15.94;81.82;100240.13;4989927;28;20437;-73
2021/07/31 10:11:27;;;;;;;495.43;401.93;;;;;;;16.41;81.27;100327.13;4996510;28;20451;-73
2021/07/31 10:13:55;;;;;;;278.23;172.60;;;;;;;16.00;81.89;100256.22;4994427;28;20433;-74
2021/07/31 10:16:20;;;;;;;59.43;34.63;;;;;;;16.31;82.44;100321.56;4996355;28;20519;-74
2021/07/31 10:19:06;;;;;;;235.37;141.97;;;;;;;16.45;82.79;100325.53;4990859;28;20559;-73
2021/07/31 10:21:58;;;;;;;119.30;81.03;;;;;;;16.53;82.97;100345.97;4988558;28;20188;-73
2021/07/31 10:24:24;;;;;;;270.77;169.97;;;;;;;16.47;83.27;100341.56;4991721;28;20503;-74
2021/07/31 10:27:14;;;;;;;895.43;779.00;;;;;;;16.53;84.33;100353.28;4996715;28;20501;-74
2021/07/31 10:29:47;;;;;;;460.43;336.30;;;;;;;16.62;83.97;100349.88;4997848;28;20428;-74
2021/07/31 10:32:21;;;;;;;294.43;185.80;;;;;;;16.79;83.77;100349.03;4996978;28;20480;-73
2021/07/31 10:34:54;;;;;;;593.57;439.53;;;;;;;16.69;82.16;100374.91;5004424;28;20444;-73
2021/07/31 10:37:29;;;;;;;358.37;291.23;;;;;;;16.69;82.10;100365.94;4996625;28;20472;-73
2021/07/31 10:40:04;;;;;;;157.23;88.17;;;;;;;16.66;81.52;100374.56;4994352;28;20439;-73
2021/07/31 10:42:47;;;;;;;235.33;157.37;;;;;;;16.61;82.08;100371.78;4998452;28;20459;-72
2021/07/31 10:45:15;;;;;;;185.63;124.23;;;;;;;16.70;81.98;100370.28;4995618;28;20796;-73
2021/07/31 10:47:42;;;;;;;292.50;181.97;;;;;;;16.82;82.16;100371.00;4994970;28;20460;-73
2021/07/31 10:50:26;;;;;;;292.40;183.77;;;;;;;16.90;82.59;100375.19;4994580;28;20447;-73
2021/07/31 10:53:12;;;;;;;273.30;167.00;;;;;;;16.94;82.94;100366.28;4996028;28;20547;-73